Time;durP1;ratioP1;P1;durP2;ratioP2;P2;SDS_P1;SDS_P2;PMS_P1;PMS_P2;Temp;Humidity;BMP_temperature;BMP_pressure;BME280_temperature;BME280_humidity;BME280_pressure;Samples;Min_cycle;Max_cycle;Signal;HPM_P1;HPM_P2
2021/01/28 00:00:36;;;;;;;5.22;1.98;;;;;;;19.58;45.37;99794.41;5075460;28;20074;-76
2021/01/28 00:03:03;;;;;;;4.38;2.00;;;;;;;19.64;45.37;99792.81;5074128;28;20033;-76
2021/01/28 00:05:31;;;;;;;3.53;1.88;;;;;;;19.52;45.39;99793.19;5075407;28;20020;-77
2021/01/28 00:08:00;;;;;;;2.67;1.77;;;;;;;19.65;45.18;99786.09;5075325;28;20021;-77
2021/01/28 00:10:27;;;;;;;4.78;2.72;;;;;;;19.70;45.01;99791.22;5075294;28;20063;-76
2021/01/28 00:12:53;;;;;;;2.60;1.67;;;;;;;19.75;44.84;99790.84;5075283;28;20023;-76
2021/01/28 00:15:22;;;;;;;7.10;2.72;;;;;;;19.73;45.01;99770.25;5074866;28;20052;-77
2021/01/28 00:17:48;;;;;;;6.03;2.63;;;;;;;19.77;44.66;99779.34;5075158;28;20025;-76
2021/01/28 00:20:29;;;;;;;2.33;1.65;;;;;;;19.74;44.79;99772.63;5075083;28;20024;-76
2021/01/28 00:22:55;;;;;;;2.78;1.90;;;;;;;19.80;44.62;99762.72;5075078;28;20482;-76
2021/01/28 00:25:22;;;;;;;5.40;2.53;;;;;;;19.71;45.01;99754.00;5074884;28;20121;-76
2021/01/28 00:27:49;;;;;;;4.18;2.15;;;;;;;19.80;44.68;99748.88;5074917;28;20035;-76
2021/01/28 00:30:29;;;;;;;3.45;2.40;;;;;;;19.71;44.68;99748.47;5074895;28;20118;-76
2021/01/28 00:32:56;;;;;;;5.03;2.60;;;;;;;19.82;44.67;99743.69;5074944;28;20036;-76
2021/01/28 00:35:29;;;;;;;4.88;2.75;;;;;;;19.81;44.42;99738.56;5073518;28;20024;-76
2021/01/28 00:37:58;;;;;;;6.38;2.65;;;;;;;19.75;44.64;99729.84;5074777;28;20040;-76
2021/01/28 00:40:26;;;;;;;3.10;2.20;;;;;;;19.82;44.53;99726.28;5074751;28;20033;-76
2021/01/28 00:42:52;;;;;;;3.25;2.15;;;;;;;19.82;44.35;99721.53;5074602;28;20068;-76
2021/01/28 00:45:21;;;;;;;3.38;2.47;;;;;;;19.83;44.32;99719.53;5074603;28;20048;-76
2021/01/28 00:47:46;;;;;;;3.85;2.60;;;;;;;19.89;44.43;99710.41;5073398;28;20021;-76
2021/01/28 00:50:13;;;;;;;4.68;3.60;;;;;;;19.87;44.47;99704.47;5074462;28;20029;-76
2021/01/28 00:52:40;;;;;;;4.82;3.33;;;;;;;19.90;44.38;99705.66;5074442;28;20020;-76
2021/01/28 00:55:09;;;;;;;4.03;3.50;;;;;;;19.91;44.49;99696.16;5074320;28;20021;-76
2021/01/28 00:57:35;;;;;;;4.38;3.70;;;;;;;19.92;44.44;99694.97;5074322;28;20390;-76
2021/01/28 01:00:00;;;;;;;4.70;3.80;;;;;;;19.96;44.33;99673.56;5074284;28;20030;-76
2021/01/28 01:02:26;;;;;;;4.75;3.92;;;;;;;20.05;44.28;99671.16;5074262;28;20016;-76
2021/01/28 01:04:52;;;;;;;6.10;4.85;;;;;;;20.13;44.12;99663.59;5074363;28;20074;-76
2021/01/28 01:07:21;;;;;;;4.97;4.10;;;;;;;19.99;44.27;99658.09;5072871;28;20374;-76
2021/01/28 01:09:47;;;;;;;5.80;4.75;;;;;;;20.03;44.31;99661.66;5074122;28;20079;-76
2021/01/28 01:12:13;;;;;;;6.90;4.85;;;;;;;20.04;44.35;99646.59;5072972;28;20024;-76
2021/01/28 01:14:39;;;;;;;5.75;4.85;;;;;;;20.08;44.12;99639.81;5072512;28;20131;-76
2021/01/28 01:17:05;;;;;;;5.72;4.82;;;;;;;20.16;44.13;99648.91;5072187;28;20024;-76
2021/01/28 01:19:31;;;;;;;5.97;5.10;;;;;;;20.17;43.88;99629.06;5072101;28;20027;-76
2021/01/28 01:21:56;;;;;;;9.73;5.78;;;;;;;20.20;44.00;99639.38;5071988;28;20018;-76
2021/01/28 01:24:24;;;;;;;6.22;4.95;;;;;;;20.22;43.97;99633.41;5071999;28;20100;-76
2021/01/28 01:26:49;;;;;;;7.80;5.35;;;;;;;20.23;43.85;99624.69;5070802;28;20024;-76
2021/01/28 01:29:15;;;;;;;7.60;4.75;;;;;;;20.18;44.03;99621.56;5072846;28;20055;-76
2021/01/28 01:31:41;;;;;;;6.78;5.97;;;;;;;20.24;43.70;99617.16;5073287;28;20058;-76
2021/01/28 01:34:07;;;;;;;7.03;5.68;;;;;;;20.12;44.05;99612.09;5073625;28;20442;-76
2021/01/28 01:36:33;;;;;;;9.82;5.53;;;;;;;20.04;44.24;99618.88;5072160;28;20082;-76
2021/01/28 01:38:59;;;;;;;8.70;6.00;;;;;;;20.05;44.52;99612.13;5073500;28;20044;-76
2021/01/28 01:41:31;;;;;;;6.35;5.55;;;;;;;20.13;44.03;99613.66;5072975;28;20028;-76
2021/01/28 01:44:01;;;;;;;7.88;5.97;;;;;;;20.15;44.01;99608.50;5072082;28;20368;-76
2021/01/28 01:46:28;;;;;;;10.45;6.43;;;;;;;20.17;43.98;99604.13;5073685;28;20103;-76
2021/01/28 01:49:00;;;;;;;7.78;6.38;;;;;;;20.20;43.85;99602.53;5073309;28;20029;-76
2021/01/28 01:51:31;;;;;;;9.68;7.22;;;;;;;20.25;43.94;99593.78;5072060;28;20085;-76
2021/01/28 01:53:57;;;;;;;9.65;8.15;;;;;;;20.31;44.02;99594.94;5073251;28;20021;-75
2021/01/28 01:56:31;;;;;;;9.20;7.03;;;;;;;20.31;44.02;99589.38;5073187;28;20033;-76
2021/01/28 01:59:07;;;;;;;9.23;7.20;;;;;;;20.39;43.89;99579.03;5072924;28;20029;-75
2021/01/28 02:01:39;;;;;;;10.90;7.60;;;;;;;20.41;43.81;99571.88;5073232;28;20024;-76
2021/01/28 02:04:06;;;;;;;8.52;7.13;;;;;;;20.46;43.91;99574.25;5073131;28;20066;-76
2021/01/28 02:06:41;;;;;;;8.10;7.18;;;;;;;20.38;44.10;99571.91;5073038;28;20120;-76
2021/01/28 02:09:10;;;;;;;9.10;6.80;;;;;;;20.41;44.36;99566.34;5072983;28;20032;-76
2021/01/28 02:11:38;;;;;;;9.95;7.05;;;;;;;20.45;44.46;99566.31;5072922;28;20036;-76
2021/01/28 02:14:07;;;;;;;10.50;6.78;;;;;;;20.45;44.52;99564.34;5072733;28;20052;-76
2021/01/28 02:16:36;;;;;;;7.18;6.18;;;;;;;20.46;44.65;99567.91;5072773;28;20134;-77
2021/01/28 02:19:11;;;;;;;6.78;5.28;;;;;;;20.54;44.65;99549.22;5072900;28;20120;-76
2021/01/28 02:21:37;;;;;;;6.85;5.57;;;;;;;20.56;44.71;99553.16;5072826;28;20115;-76
2021/01/28 02:24:22;;;;;;;7.35;5.35;;;;;;;20.61;44.74;99547.16;5072781;28;20032;-75
2021/01/28 02:26:50;;;;;;;7.40;5.65;;;;;;;20.66;44.78;99554.28;5072776;28;20117;-77
2021/01/28 02:29:19;;;;;;;7.95;5.38;;;;;;;20.64;44.87;99549.13;5072738;28;20475;-75
2021/01/28 02:31:48;;;;;;;8.55;5.28;;;;;;;20.75;44.74;99549.03;5072687;28;20036;-76
2021/01/28 02:34:14;;;;;;;5.30;4.57;;;;;;;20.76;44.83;99547.81;5072640;28;20529;-76
2021/01/28 02:36:44;;;;;;;5.68;4.90;;;;;;;21.01;44.23;99539.28;5072558;28;20032;-76
2021/01/28 02:39:12;;;;;;;9.35;4.50;;;;;;;21.09;44.18;99538.00;5071364;28;20028;-76
2021/01/28 02:41:39;;;;;;;5.97;4.07;;;;;;;20.80;45.06;99529.16;5072541;28;20016;-76
2021/01/28 02:44:06;;;;;;;7.80;4.70;;;;;;;20.95;44.70;99527.81;5072464;28;20032;-76
2021/01/28 02:46:31;;;;;;;5.32;4.22;;;;;;;21.13;44.35;99532.38;5071208;28;20482;-76
2021/01/28 02:48:57;;;;;;;5.40;4.18;;;;;;;21.08;44.64;99527.28;5072522;28;20021;-75
2021/01/28 02:51:24;;;;;;;5.30;4.10;;;;;;;21.00;44.92;99526.56;5072405;28;20482;-75
2021/01/28 02:53:52;;;;;;;6.03;4.35;;;;;;;21.06;44.66;99525.72;5072455;28;20012;-76
2021/01/28 02:56:23;;;;;;;6.30;4.07;;;;;;;20.98;44.88;99527.00;5072324;28;20498;-76
2021/01/28 02:58:49;;;;;;;6.03;3.97;;;;;;;20.90;45.45;99525.47;5072470;28;20392;-76
2021/01/28 03:01:15;;;;;;;5.22;3.28;;;;;;;20.74;45.95;99519.69;5072394;28;20415;-76
2021/01/28 03:03:42;;;;;;;4.95;3.47;;;;;;;20.98;45.25;99527.00;5072331;28;20412;-76
2021/01/28 03:06:09;;;;;;;6.00;3.70;;;;;;;21.06;44.96;99517.38;5072348;28;20391;-76
2021/01/28 03:08:35;;;;;;;6.68;3.58;;;;;;;21.07;45.11;99520.94;5072258;28;20025;-76
2021/01/28 03:11:01;;;;;;;5.25;3.25;;;;;;;21.00;45.34;99521.81;5073079;28;20040;-76
2021/01/28 03:13:27;;;;;;;4.78;3.30;;;;;;;21.09;45.14;99512.22;5075006;28;20029;-76
2021/01/28 03:15:52;;;;;;;4.60;3.13;;;;;;;21.09;45.09;99517.78;5074770;28;20055;-76
2021/01/28 03:18:19;;;;;;;5.10;3.60;;;;;;;21.06;45.25;99511.81;5074897;28;20037;-76
2021/01/28 03:20:46;;;;;;;4.40;3.15;;;;;;;21.13;45.23;99516.50;5076169;28;20020;-76
2021/01/28 03:23:11;;;;;;;4.90;3.70;;;;;;;21.10;45.35;99513.78;5072948;28;20139;-76
2021/01/28 03:25:37;;;;;;;6.20;3.72;;;;;;;21.13;45.31;99505.41;5058776;28;20048;-76
2021/01/28 03:28:04;;;;;;;8.27;4.40;;;;;;;21.19;45.38;99511.31;5056042;28;20048;-76
2021/01/28 03:30:34;;;;;;;5.38;3.70;;;;;;;21.07;45.51;99515.38;5056021;28;20036;-76
2021/01/28 03:33:02;;;;;;;5.20;3.67;;;;;;;21.17;45.44;99503.38;5055938;28;20104;-76
2021/01/28 03:35:28;;;;;;;7.30;3.67;;;;;;;21.09;45.82;99507.44;5055753;28;20112;-76
2021/01/28 03:37:54;;;;;;;5.15;3.88;;;;;;;21.10;45.87;99508.25;5055844;28;20112;-76
2021/01/28 03:40:22;;;;;;;7.15;3.83;;;;;;;21.20;45.51;99504.53;5054539;28;20379;-75
2021/01/28 03:42:48;;;;;;;6.60;4.10;;;;;;;21.11;45.91;99493.16;5055804;28;20033;-75
2021/01/28 03:45:14;;;;;;;6.88;4.32;;;;;;;20.97;46.22;99494.09;5054618;28;20036;-76
2021/01/28 03:47:40;;;;;;;5.70;4.20;;;;;;;20.91;46.22;99496.53;5055263;28;20364;-76
2021/01/28 03:50:07;;;;;;;5.38;4.25;;;;;;;20.93;46.45;99498.88;5055635;28;20086;-76
2021/01/28 03:52:33;;;;;;;5.55;4.53;;;;;;;20.91;46.52;99496.53;5055674;28;20587;-76
2021/01/28 03:54:59;;;;;;;8.35;4.90;;;;;;;20.84;46.77;99491.03;5055491;28;20049;-75
2021/01/28 03:57:25;;;;;;;6.97;4.30;;;;;;;20.87;46.68;99501.34;5055575;28;20387;-76
2021/01/28 03:59:50;;;;;;;11.15;4.80;;;;;;;20.90;46.78;99492.16;5055469;28;20037;-76
2021/01/28 04:02:16;;;;;;;7.88;4.97;;;;;;;20.80;47.10;99479.19;5054205;28;20037;-76
2021/01/28 04:04:41;;;;;;;6.00;4.30;;;;;;;20.78;47.22;99487.94;5055187;28;20037;-76
2021/01/28 04:07:07;;;;;;;5.35;4.22;;;;;;;20.88;46.79;99483.47;5055331;28;20060;-76
2021/01/28 04:09:33;;;;;;;7.13;5.10;;;;;;;20.99;46.57;99486.13;5055349;28;20033;-75
2021/01/28 04:11:59;;;;;;;9.40;5.47;;;;;;;20.91;46.95;99488.19;5055283;28;20040;-76
2021/01/28 04:14:24;;;;;;;8.20;5.07;;;;;;;20.99;46.98;99486.13;5053759;28;20055;-76
2021/01/28 04:16:50;;;;;;;5.97;4.40;;;;;;;20.84;47.35;99484.69;5055088;28;20487;-76
2021/01/28 04:19:16;;;;;;;6.90;4.53;;;;;;;20.83;47.16;99489.47;5055224;28;20025;-76
2021/01/28 04:21:41;;;;;;;7.97;4.07;;;;;;;20.58;48.16;99497.25;5054874;28;20021;-75
2021/01/28 04:24:07;;;;;;;9.73;3.83;;;;;;;20.76;47.67;99495.09;5055023;28;20043;-76
2021/01/28 04:26:34;;;;;;;6.32;2.80;;;;;;;20.63;47.95;99507.91;5054983;28;20071;-76
2021/01/28 04:29:02;;;;;;;7.78;3.13;;;;;;;20.44;48.79;99512.81;5054918;28;20029;-77
2021/01/28 04:31:27;;;;;;;8.02;4.05;;;;;;;20.20;49.35;99506.25;5054900;28;20407;-76
2021/01/28 04:33:53;;;;;;;6.85;2.60;;;;;;;20.44;48.74;99518.38;5054833;28;20100;-75
2021/01/28 04:36:19;;;;;;;9.63;2.58;;;;;;;20.29;48.94;99524.41;5054688;28;20024;-75
2021/01/28 04:38:45;;;;;;;12.02;4.25;;;;;;;20.56;48.31;99527.41;5054618;28;20499;-76
2021/01/28 04:41:31;;;;;;;9.93;3.00;;;;;;;20.60;47.87;99519.81;5054671;28;20386;-76
2021/01/28 04:43:59;;;;;;;9.13;3.38;;;;;;;20.56;48.04;99519.88;5054538;28;20104;-76
2021/01/28 04:46:36;;;;;;;10.13;2.80;;;;;;;20.37;48.15;99525.94;5054624;28;20032;-76
2021/01/28 04:49:05;;;;;;;12.75;3.08;;;;;;;19.88;49.29;99520.34;5053376;28;20033;-76
2021/01/28 04:51:31;;;;;;;16.17;3.30;;;;;;;20.35;47.84;99528.34;5069963;28;20037;-76
2021/01/28 04:54:06;;;;;;;13.05;3.17;;;;;;;20.01;48.58;99525.41;5054581;28;20027;-77
2021/01/28 04:56:33;;;;;;;18.42;4.03;;;;;;;20.50;46.99;99519.53;5054367;28;20029;-76
2021/01/28 04:59:14;;;;;;;15.60;3.50;;;;;;;20.19;47.29;99517.75;5054327;28;20035;-77
2021/01/28 05:01:40;;;;;;;12.85;3.97;;;;;;;20.64;45.98;99521.38;5054369;28;20020;-76
2021/01/28 05:04:10;;;;;;;13.50;3.88;;;;;;;19.92;47.61;99537.72;5054394;28;20476;-76
2021/01/28 05:06:36;;;;;;;24.77;4.38;;;;;;;20.16;47.01;99532.44;5053003;28;20059;-76
2021/01/28 05:09:02;;;;;;;23.10;4.30;;;;;;;20.19;46.62;99531.63;5054221;28;20052;-76
2021/01/28 05:11:34;;;;;;;16.48;4.88;;;;;;;20.37;45.78;99521.19;5054222;28;20388;-76
2021/01/28 05:14:19;;;;;;;15.00;3.95;;;;;;;20.12;46.26;99526.13;5052571;28;20040;-76
2021/01/28 05:16:56;;;;;;;18.75;4.55;;;;;;;20.25;45.97;99521.66;5052651;28;20571;-76
2021/01/28 05:19:45;;;;;;;23.20;4.72;;;;;;;20.27;45.77;99524.84;5052757;28;20025;-75
2021/01/28 05:22:22;;;;;;;18.27;4.93;;;;;;;20.05;46.10;99529.75;5053866;28;20114;-75
2021/01/28 05:25:13;;;;;;;17.15;3.97;;;;;;;20.21;45.66;99515.38;5053936;28;20071;-76
2021/01/28 05:27:39;;;;;;;21.92;5.63;;;;;;;20.11;45.77;99519.00;5053858;28;20033;-76
2021/01/28 05:30:35;;;;;;;23.30;5.65;;;;;;;20.23;44.91;99513.75;5053828;28;20057;-76
2021/01/28 05:33:02;;;;;;;18.27;5.32;;;;;;;20.25;45.16;99516.09;5053681;28;20522;-76
2021/01/28 05:35:30;;;;;;;24.85;6.05;;;;;;;20.26;45.06;99514.94;5051777;28;20108;-76
2021/01/28 05:38:11;;;;;;;16.85;5.22;;;;;;;19.83;45.88;99522.75;5053642;28;20411;-76
2021/01/28 05:40:38;;;;;;;;;;;;;;;20.06;45.10;99519.44;5054026;28;20024;-76
2021/01/28 05:43:21;;;;;;;24.23;5.90;;;;;;;20.17;44.68;99514.59;5053546;28;19919;-76
2021/01/28 05:45:47;;;;;;;31.08;6.30;;;;;;;19.83;45.78;99526.31;5053566;28;20028;-75
2021/01/28 05:48:22;;;;;;;18.67;4.90;;;;;;;19.83;45.55;99522.75;5053498;28;20614;-75
2021/01/28 05:51:09;;;;;;;25.05;6.13;;;;;;;19.88;45.29;99514.81;5052303;28;20024;-75
2021/01/28 05:53:34;;;;;;;28.30;5.22;;;;;;;19.77;45.52;99527.13;5053175;28;20037;-75
2021/01/28 05:56:03;;;;;;;30.52;5.30;;;;;;;19.93;44.86;99522.66;5051918;28;20032;-74
2021/01/28 05:59:05;;;;;;;24.23;5.20;;;;;;;19.27;46.55;99532.84;5053090;28;20055;-75
2021/01/28 06:01:43;;;;;;;25.08;5.55;;;;;;;19.61;45.63;99527.59;5052790;28;20037;-75
2021/01/28 06:04:08;;;;;;;22.67;5.43;;;;;;;19.90;45.03;99515.19;5053178;28;20032;-75
2021/01/28 06:06:53;;;;;;;20.83;4.97;;;;;;;19.60;45.50;99526.03;5051836;28;20034;-76
2021/01/28 06:09:44;;;;;;;20.75;5.78;;;;;;;19.54;45.62;99525.63;5053033;28;20432;-75
2021/01/28 06:12:54;;;;;;;26.90;7.78;;;;;;;19.52;45.77;99524.47;5053346;28;20579;-76
2021/01/28 06:15:29;;;;;;;24.15;6.03;;;;;;;19.74;45.10;99525.19;5050003;28;20044;-76
2021/01/28 06:17:57;;;;;;;28.85;6.32;;;;;;;19.79;44.79;99522.75;5053034;28;20480;-75
2021/01/28 06:20:43;;;;;;;26.75;6.50;;;;;;;19.72;45.05;99527.53;5052854;28;20041;-75
2021/01/28 06:23:30;;;;;;;25.85;6.10;;;;;;;19.53;45.77;99520.50;5051387;28;20025;-75
2021/01/28 06:26:08;;;;;;;34.97;7.38;;;;;;;19.73;45.12;99526.38;5052765;28;20028;-75
2021/01/28 06:28:44;;;;;;;25.90;5.78;;;;;;;19.66;45.44;99533.53;5051417;28;20497;-75
2021/01/28 06:31:36;;;;;;;32.15;6.60;;;;;;;19.56;45.62;99530.75;5052775;28;20043;-75
2021/01/28 06:34:38;;;;;;;34.85;7.80;;;;;;;19.44;46.11;99534.00;5049227;28;20033;-75
2021/01/28 06:37:13;;;;;;;27.95;7.47;;;;;;;19.16;46.83;99537.63;5052498;28;20260;-74
2021/01/28 06:39:44;;;;;;;28.50;6.38;;;;;;;18.94;47.03;99531.34;5051344;28;20037;-75
2021/01/28 06:42:39;;;;;;;37.15;8.63;;;;;;;19.32;45.97;99526.91;5052588;28;20025;-75
2021/01/28 06:45:18;;;;;;;29.08;7.57;;;;;;;19.33;45.81;99537.56;5049759;28;20049;-75
2021/01/28 06:47:52;;;;;;;30.23;6.70;;;;;;;19.20;46.13;99530.91;5052280;28;20033;-75
2021/01/28 06:50:38;;;;;;;23.80;6.32;;;;;;;19.24;46.05;99539.19;5052544;28;20032;-75
2021/01/28 06:53:17;;;;;;;25.35;6.15;;;;;;;19.30;45.84;99546.69;5067860;28;20391;-76
2021/01/28 06:55:59;;;;;;;27.67;6.68;;;;;;;19.32;45.56;99560.13;5051055;28;20040;-75
2021/01/28 06:59:08;;;;;;;27.98;6.57;;;;;;;19.20;46.17;99552.28;5052287;28;20029;-75
2021/01/28 07:01:55;;;;;;;28.60;6.85;;;;;;;19.05;46.20;99560.63;5051061;28;20495;-75
2021/01/28 07:04:52;;;;;;;26.27;6.35;;;;;;;18.81;46.98;99567.75;5051066;28;20033;-75
2021/01/28 07:07:23;;;;;;;31.08;7.07;;;;;;;19.08;46.32;99565.34;5051892;28;20139;-75
2021/01/28 07:10:04;;;;;;;32.05;7.93;;;;;;;19.12;46.48;99573.66;5052138;28;20017;-75
2021/01/28 07:12:38;;;;;;;33.55;7.05;;;;;;;19.02;46.91;99569.69;5052269;28;20035;-75
2021/01/28 07:15:05;;;;;;;29.70;7.88;;;;;;;19.01;46.98;99583.94;5051745;28;20547;-76
2021/01/28 07:17:53;;;;;;;31.17;6.65;;;;;;;19.27;46.33;99591.81;5052167;28;20477;-75
2021/01/28 07:20:40;;;;;;;32.72;8.65;;;;;;;19.36;46.37;99591.41;5052128;28;20055;-76
2021/01/28 07:23:34;;;;;;;28.25;6.18;;;;;;;19.51;45.68;99594.91;5052116;28;20033;-76
2021/01/28 07:26:14;;;;;;;27.52;6.40;;;;;;;19.49;45.58;99603.59;5052221;28;20468;-76
2021/01/28 07:28:42;;;;;;;29.70;8.00;;;;;;;19.60;45.36;99593.31;5050888;28;20210;-76
2021/01/28 07:31:08;;;;;;;31.85;7.07;;;;;;;19.40;45.94;99600.47;5052100;28;20090;-75
2021/01/28 07:33:58;;;;;;;25.80;6.70;;;;;;;19.13;46.21;99598.16;5052052;28;20479;-76
2021/01/28 07:36:24;;;;;;;27.20;7.53;;;;;;;19.41;45.60;99613.13;5050652;28;20033;-75
2021/01/28 07:38:59;;;;;;;39.08;8.57;;;;;;;19.48;45.40;99609.53;5051962;28;20249;-75
2021/01/28 07:41:40;;;;;;;32.80;7.03;;;;;;;19.21;46.24;99612.00;5051928;28;20033;-74
2021/01/28 07:44:24;;;;;;;28.80;6.10;;;;;;;19.32;45.99;99627.41;5051949;28;20033;-75
2021/01/28 07:46:51;;;;;;;35.47;8.90;;;;;;;19.47;45.66;99630.13;5051867;28;20036;-75
2021/01/28 07:49:21;;;;;;;28.50;7.45;;;;;;;19.48;45.65;99634.47;5070860;28;20065;-76
2021/01/28 07:51:48;;;;;;;;;;;;;;;19.44;45.67;99634.50;5070267;28;20024;-76
2021/01/28 07:54:26;;;;;;;29.20;6.05;;;;;;;19.15;46.37;99628.22;5070109;28;19923;-76
2021/01/28 07:56:55;;;;;;;25.50;6.40;;;;;;;19.54;45.29;99624.56;5052278;28;20035;-74
2021/01/28 07:59:35;;;;;;;27.35;5.45;;;;;;;19.46;45.62;99625.78;5055457;28;20494;-74
2021/01/28 08:02:13;;;;;;;29.83;8.38;;;;;;;19.30;45.79;99627.00;5083063;28;20435;-76
2021/01/28 08:04:45;;;;;;;37.80;9.75;;;;;;;19.32;45.61;99621.06;5094884;28;20478;-76
2021/01/28 08:07:13;;;;;;;37.55;7.75;;;;;;;19.42;45.33;99628.56;5082350;28;20063;-76
2021/01/28 08:09:49;;;;;;;29.92;7.03;;;;;;;19.31;45.25;99625.81;5076474;28;20032;-73
2021/01/28 08:12:30;;;;;;;36.35;7.60;;;;;;;19.10;46.23;99621.09;5090395;28;20493;-74
2021/01/28 08:14:58;;;;;;;34.47;6.75;;;;;;;19.21;45.95;99629.41;5080613;28;20407;-74
2021/01/28 08:17:31;;;;;;;41.38;11.27;;;;;;;19.15;45.77;99641.28;5092084;28;20432;-74
2021/01/28 08:20:25;;;;;;;38.47;10.55;;;;;;;19.07;45.90;99630.22;5095248;28;20356;-74
2021/01/28 08:23:01;;;;;;;51.88;33.50;;;;;;;19.20;45.49;99636.13;5095093;28;20039;-74
2021/01/28 08:25:31;;;;;;;51.90;22.15;;;;;;;19.25;45.59;99637.69;5089179;28;20099;-73
2021/01/28 08:28:10;;;;;;;33.22;10.00;;;;;;;19.19;45.69;99634.53;5074475;28;20542;-74
2021/01/28 08:30:35;;;;;;;42.42;8.25;;;;;;;19.00;46.29;99643.25;5074676;28;20086;-74
2021/01/28 08:33:02;;;;;;;40.42;15.93;;;;;;;19.26;45.42;99640.06;5074634;28;20425;-74
2021/01/28 08:35:44;;;;;;;35.88;13.15;;;;;;;19.18;45.52;99641.25;5074500;28;20039;-75
2021/01/28 08:38:17;;;;;;;40.90;9.63;;;;;;;19.14;45.63;99643.25;5072985;28;20074;-75
2021/01/28 08:40:55;;;;;;;32.33;8.88;;;;;;;19.13;45.96;99636.94;5074560;28;20388;-73
2021/01/28 08:43:21;;;;;;;40.13;9.23;;;;;;;18.64;47.48;99650.72;5074657;28;20047;-77
2021/01/28 08:45:47;;;;;;;30.55;8.85;;;;;;;19.03;46.30;99642.47;5072326;28;20036;-74
2021/01/28 08:48:15;;;;;;;33.42;8.23;;;;;;;19.17;46.00;99647.19;5074413;28;20511;-75
2021/01/28 08:50:42;;;;;;;33.60;9.68;;;;;;;19.29;45.61;99660.66;5070597;28;20063;-81
2021/01/28 08:53:22;;;;;;;33.20;8.68;;;;;;;19.44;45.42;99664.97;5068402;28;20035;-73
2021/01/28 08:55:48;;;;;;;;;;;;;;;19.02;46.54;99654.72;5073165;28;20078;-73
2021/01/28 08:58:14;;;;;;;34.20;7.88;;;;;;;19.51;45.42;99647.56;5073387;28;19916;-73
2021/01/28 09:00:47;;;;;;;35.65;8.60;;;;;;;19.59;44.91;99644.38;5071726;28;20051;-71
2021/01/28 09:03:19;;;;;;;32.10;7.85;;;;;;;19.52;45.23;99643.59;5072472;28;20024;-73
2021/01/28 09:05:45;;;;;;;34.35;7.68;;;;;;;19.61;45.11;99650.31;5096599;28;20020;-74
2021/01/28 09:08:33;;;;;;;39.08;10.40;;;;;;;19.67;44.74;99653.47;5071253;28;20372;-75
2021/01/28 09:11:25;;;;;;;37.20;17.42;;;;;;;19.69;44.53;99667.72;5068586;28;20024;-74
2021/01/28 09:14:15;;;;;;;39.88;12.45;;;;;;;19.57;45.17;99668.94;5059962;28;20135;-77
2021/01/28 09:16:52;;;;;;;38.95;14.35;;;;;;;19.68;44.72;99671.66;5058295;28;20433;-74
2021/01/28 09:19:20;;;;;;;32.38;11.60;;;;;;;19.74;44.61;99674.84;5069918;28;20483;-74
2021/01/28 09:21:56;;;;;;;30.50;9.45;;;;;;;19.63;44.71;99680.38;5069248;28;20506;-76
2021/01/28 09:24:30;;;;;;;70.03;49.17;;;;;;;19.76;44.37;99689.84;5071493;28;20099;-74
2021/01/28 09:27:22;;;;;;;50.28;22.98;;;;;;;19.72;44.15;99689.06;5071340;28;20075;-74
2021/01/28 09:29:52;;;;;;;43.08;12.43;;;;;;;19.85;43.88;99684.69;5070912;28;20033;-74
2021/01/28 09:32:18;;;;;;;40.97;11.00;;;;;;;19.86;43.89;99677.94;5068720;28;20103;-74
2021/01/28 09:34:44;;;;;;;38.13;9.32;;;;;;;19.95;43.70;99686.66;5072536;28;20104;-74
2021/01/28 09:37:20;;;;;;;33.65;8.18;;;;;;;19.94;43.71;99685.03;5072078;28;20043;-74
2021/01/28 09:39:53;;;;;;;27.00;7.15;;;;;;;19.91;43.83;99685.84;5071128;28;20028;-74
2021/01/28 09:42:28;;;;;;;34.33;7.07;;;;;;;19.90;43.65;99694.56;5073305;28;20121;-74
2021/01/28 09:44:56;;;;;;;36.70;8.10;;;;;;;19.97;43.73;99693.75;5071188;28;20403;-74
2021/01/28 09:47:28;;;;;;;30.27;7.32;;;;;;;19.94;43.40;99696.13;5068216;28;20059;-74
2021/01/28 09:50:11;;;;;;;34.08;7.97;;;;;;;19.81;43.34;99705.31;5065716;28;20494;-74
2021/01/28 09:52:44;;;;;;;34.83;7.88;;;;;;;19.75;43.46;99707.69;5072870;28;20032;-79
2021/01/28 09:55:19;;;;;;;103.35;71.60;;;;;;;19.80;43.37;99707.28;5071510;28;20055;-74
2021/01/28 09:57:44;;;;;;;39.25;16.95;;;;;;;19.69;43.69;99703.72;5070329;28;20459;-74
2021/01/28 10:00:14;;;;;;;178.95;112.00;;;;;;;19.70;43.65;99713.63;5069248;28;20108;-74
2021/01/28 10:03:05;;;;;;;241.55;160.00;;;;;;;19.60;43.55;99720.00;5071588;28;20356;-75
2021/01/28 10:05:32;;;;;;;102.60;58.35;;;;;;;19.60;43.73;99722.75;5070235;28;20566;-75
2021/01/28 10:07:59;;;;;;;181.27;120.00;;;;;;;19.64;43.68;99718.78;5071444;28;20525;-75
2021/01/28 10:10:27;;;;;;;75.07;41.63;;;;;;;19.72;43.52;99716.78;5071147;28;20016;-75
2021/01/28 10:12:56;;;;;;;117.00;67.07;;;;;;;19.83;43.40;99725.88;5070639;28;20043;-74
2021/01/28 10:15:24;;;;;;;23.92;6.95;;;;;;;19.86;43.47;99725.06;5067925;28;20041;-76
2021/01/28 10:17:51;;;;;;;26.40;6.68;;;;;;;20.04;43.19;99727.81;5071248;28;20017;-74
2021/01/28 10:20:17;;;;;;;27.92;6.38;;;;;;;20.48;41.96;99735.56;5068053;28;20070;-75
2021/01/28 10:22:43;;;;;;;28.67;6.40;;;;;;;20.47;42.07;99738.72;5068983;28;20032;-75
2021/01/28 10:25:11;;;;;;;26.75;7.00;;;;;;;20.41;41.80;99737.56;5069556;28;20487;-80
2021/01/28 10:27:38;;;;;;;30.98;8.00;;;;;;;20.42;41.93;99739.94;5067995;28;20372;-76
2021/01/28 10:30:09;;;;;;;32.38;7.22;;;;;;;20.18;42.45;99744.38;5069146;28;20493;-74
2021/01/28 10:32:34;;;;;;;41.40;8.85;;;;;;;20.25;42.53;99743.53;5069205;28;20027;-75
2021/01/28 10:35:00;;;;;;;26.60;6.95;;;;;;;20.28;42.44;99741.97;5070582;28;20020;-74
2021/01/28 10:37:26;;;;;;;27.05;5.85;;;;;;;20.37;42.18;99754.22;5069967;28;20158;-75
2021/01/28 10:39:52;;;;;;;22.45;6.80;;;;;;;20.41;42.21;99757.78;5070708;28;20025;-74
2021/01/28 10:42:19;;;;;;;27.92;7.55;;;;;;;20.40;42.15;99766.47;5070538;28;20027;-75
2021/01/28 10:44:47;;;;;;;20.85;7.15;;;;;;;20.49;42.00;99766.88;5072418;28;20107;-76
2021/01/28 10:47:14;;;;;;;26.73;6.72;;;;;;;20.56;41.92;99766.06;5071538;28;20486;-76
2021/01/28 10:49:39;;;;;;;28.40;5.88;;;;;;;20.56;42.07;99771.63;5070674;28;20020;-80
2021/01/28 10:52:05;;;;;;;25.58;5.38;;;;;;;20.55;42.01;99779.13;5072183;28;20331;-84
2021/01/28 10:54:30;;;;;;;24.73;5.93;;;;;;;20.66;41.82;99776.31;5071170;28;20070;-74
2021/01/28 10:56:56;;;;;;;26.05;6.03;;;;;;;20.73;41.65;99784.59;5070528;28;20437;-75
2021/01/28 10:59:21;;;;;;;24.08;8.45;;;;;;;20.66;41.85;99779.09;5070545;28;20020;-75
2021/01/28 11:01:47;;;;;;;27.77;12.10;;;;;;;20.80;41.55;99781.00;5071578;28;20436;-76
2021/01/28 11:04:12;;;;;;;26.05;7.72;;;;;;;20.82;41.45;99787.72;5069416;28;20028;-76
2021/01/28 11:06:38;;;;;;;33.30;11.27;;;;;;;20.80;41.67;99794.88;5061223;28;20162;-75
2021/01/28 11:09:04;;;;;;;49.22;29.17;;;;;;;20.73;41.78;99785.38;5043261;28;21022;-75
2021/01/28 11:11:29;;;;;;;34.70;10.70;;;;;;;20.79;41.73;99782.97;5051425;28;20036;-76
2021/01/28 11:13:55;;;;;;;39.35;22.00;;;;;;;20.77;41.75;99796.47;5059028;28;20016;-75
2021/01/28 11:16:26;;;;;;;39.85;18.77;;;;;;;20.68;41.92;99794.13;5066342;28;20037;-75
2021/01/28 11:18:53;;;;;;;46.95;28.95;;;;;;;20.80;41.62;99787.34;5065657;28;20043;-75
2021/01/28 11:21:20;;;;;;;88.53;52.60;;;;;;;20.75;41.82;99777.44;5066592;28;20397;-75
2021/01/28 11:23:45;;;;;;;68.47;49.40;;;;;;;20.83;41.65;99775.41;5067002;28;20050;-75
2021/01/28 11:26:11;;;;;;;31.40;9.98;;;;;;;20.90;41.66;99766.25;5064912;28;20094;-74
2021/01/28 11:28:36;;;;;;;26.70;7.65;;;;;;;20.85;41.64;99761.13;5067688;28;20025;-76
2021/01/28 11:31:02;;;;;;;27.17;6.32;;;;;;;20.86;41.77;99768.28;5063346;28;20060;-75
2021/01/28 11:33:28;;;;;;;23.70;6.38;;;;;;;20.97;41.63;99774.53;5070241;28;20105;-75
2021/01/28 11:35:54;;;;;;;25.10;6.53;;;;;;;20.77;42.08;99775.03;5071433;28;20028;-74
2021/01/28 11:38:19;;;;;;;29.17;6.40;;;;;;;21.00;41.66;99770.94;5066390;28;20020;-74
2021/01/28 11:40:45;;;;;;;23.65;7.45;;;;;;;20.89;42.00;99770.22;5070267;28;20486;-75
2021/01/28 11:43:10;;;;;;;30.77;7.25;;;;;;;20.92;41.89;99772.97;5067144;28;20605;-75
2021/01/28 11:45:36;;;;;;;24.33;7.00;;;;;;;21.02;41.76;99772.13;5070919;28;20166;-74
2021/01/28 11:48:03;;;;;;;32.50;7.10;;;;;;;21.09;41.69;99760.19;5070357;28;20421;-75